Smith Reynolds Airport Winston Salem US
ICAO: KINT
IATA: INT
Category: Medium
Scheduled Services: No

Elevation: 969 ft
TransAlt. 18000 ft.

Airport Communications:
GREENSBORO APP/DEP:124.35
ATIS:121.3
CTAF:123.75
GND:128.25
WINSTON SALEM TWR:123.75
UNICOM:122.95

KINT Zoom In..

If you have problems with the map follow the link
https://www.worldairports.se/pages/airport.php?
ICAO=KINT

Runways:

(A) RW 04 length 3938 ft width 150 ft
---- / hdg 38

(B) RW 15 length 6655 ft width 150 ft
---- / hdg 152

(C) RW 22 length 3938 ft width 150 ft
---- / hdg 218

(D) RW 33 length 6655 ft width 150 ft
ILS 110.30 / hdg 332

Location; KINT
Day. 14 / Time. 14.54 Zulu
* Altimeter: 29.55
* Temperature: 07° c. 44.6°f.
* Wind from: 240° Speed 05 kn.
Dewpoint: 07° c.
Visibility: 4 Statute Miles.
Clouds: Overcast 200 ft.
Conditions: Mist.

KINT 141454Z 24005KT 4SM BR OVC002 07/07 A2955 RMK AO2 SLP007 T00720067 50013


Wind From 240°
Speed 05 kn.

 
 
jpsmedia worldairports.se 2019   terms of use